Time;durP1;ratioP1;P1;durP2;ratioP2;P2;SDS_P1;SDS_P2;PMS_P1;PMS_P2;Temp;Humidity;BMP_temperature;BMP_pressure;BME280_temperature;BME280_humidity;BME280_pressure;Samples;Min_cycle;Max_cycle;Signal;HPM_P1;HPM_P2
2021/04/30 00:00:08;;;;;;;21.80;17.27;;;;;;;9.81;57.27;99740.38;5074086;28;20053;-74
2021/04/30 00:02:36;;;;;;;22.40;15.68;;;;;;;9.79;56.85;99737.94;5075176;28;20060;-74
2021/04/30 00:05:04;;;;;;;18.75;15.88;;;;;;;9.75;57.02;99737.75;5075034;28;20458;-74
2021/04/30 00:07:31;;;;;;;20.08;14.95;;;;;;;9.80;56.91;99733.19;5075072;28;20048;-74
2021/04/30 00:09:58;;;;;;;19.77;14.10;;;;;;;9.77;57.25;99736.63;5075063;28;20048;-74
2021/04/30 00:12:25;;;;;;;17.25;13.93;;;;;;;9.82;57.13;99733.66;5074006;28;20056;-74
2021/04/30 00:14:52;;;;;;;18.10;13.73;;;;;;;9.83;56.94;99736.13;5074885;28;20500;-74
2021/04/30 00:17:20;;;;;;;20.05;13.13;;;;;;;9.84;56.41;99739.72;5075014;28;20056;-74
2021/04/30 00:19:47;;;;;;;16.33;13.57;;;;;;;9.79;56.47;99742.69;5074821;28;20052;-74
2021/04/30 00:22:14;;;;;;;16.75;12.43;;;;;;;9.77;56.79;99737.44;5073916;28;20056;-74
2021/04/30 00:24:41;;;;;;;15.93;13.88;;;;;;;9.81;56.56;99743.16;5074184;28;20158;-74
2021/04/30 00:27:08;;;;;;;16.05;13.20;;;;;;;9.75;57.13;99748.06;5074269;28;20048;-74
2021/04/30 00:29:35;;;;;;;17.55;14.32;;;;;;;9.79;56.81;99742.69;5074297;28;20052;-74
2021/04/30 00:32:02;;;;;;;18.90;13.48;;;;;;;9.77;56.75;99743.00;5074238;28;20063;-74
2021/04/30 00:34:29;;;;;;;15.82;12.88;;;;;;;9.77;57.25;99742.19;5074301;28;20060;-74
2021/04/30 00:36:56;;;;;;;25.85;14.15;;;;;;;9.79;57.39;99735.16;5074588;28;20044;-74
2021/04/30 00:39:23;;;;;;;19.55;13.40;;;;;;;9.78;57.26;99746.59;5077110;28;20075;-74
2021/04/30 00:41:50;;;;;;;19.40;14.63;;;;;;;9.72;57.59;99749.53;5078032;28;20067;-74
2021/04/30 00:44:17;;;;;;;20.58;14.30;;;;;;;9.68;58.30;99742.16;5077772;28;20048;-74
2021/04/30 00:46:44;;;;;;;19.27;15.32;;;;;;;9.67;58.34;99752.47;5078576;28;20485;-74
2021/04/30 00:49:12;;;;;;;17.80;14.40;;;;;;;9.67;58.33;99760.81;5077838;28;20056;-74
2021/04/30 00:51:40;;;;;;;18.55;14.55;;;;;;;9.65;58.37;99757.53;5076948;28;20496;-74
2021/04/30 00:54:07;;;;;;;19.08;14.98;;;;;;;9.63;58.10;99761.78;5077734;28;20405;-74
2021/04/30 00:56:35;;;;;;;20.17;15.10;;;;;;;9.55;59.09;99761.47;5078089;28;20052;-74
2021/04/30 00:59:03;;;;;;;24.60;15.70;;;;;;;9.50;59.16;99763.59;5078145;28;20053;-74
2021/04/30 01:01:30;;;;;;;20.67;15.63;;;;;;;9.53;59.32;99762.91;5077430;28;20397;-74
2021/04/30 01:03:57;;;;;;;22.27;14.80;;;;;;;9.53;59.08;99762.91;5077999;28;20405;-74
2021/04/30 01:06:24;;;;;;;20.05;15.45;;;;;;;9.42;59.96;99761.59;5078569;28;20056;-74
2021/04/30 01:08:54;;;;;;;21.17;16.77;;;;;;;9.42;59.63;99767.97;5077714;28;20064;-74
2021/04/30 01:11:20;;;;;;;22.77;16.00;;;;;;;9.43;59.93;99768.78;5077865;28;20103;-74
2021/04/30 01:13:47;;;;;;;19.42;16.25;;;;;;;9.40;60.14;99759.13;5078265;28;20148;-74
2021/04/30 01:16:14;;;;;;;24.13;17.35;;;;;;;9.36;60.56;99769.25;5077571;28;20048;-74
2021/04/30 01:18:42;;;;;;;23.08;17.38;;;;;;;9.39;60.18;99765.84;5077465;28;20055;-74
2021/04/30 01:21:10;;;;;;;22.38;18.23;;;;;;;9.38;60.47;99766.16;5077595;28;20044;-74
2021/04/30 01:23:49;;;;;;;23.02;17.52;;;;;;;9.27;60.24;99766.47;5061679;28;20045;-74
2021/04/30 01:26:18;;;;;;;27.67;20.27;;;;;;;9.27;60.64;99771.22;5078034;28;20052;-74
2021/04/30 01:28:47;;;;;;;28.58;20.00;;;;;;;9.27;60.49;99776.78;5076857;28;20053;-74
2021/04/30 01:31:15;;;;;;;26.77;19.20;;;;;;;9.28;60.66;99776.47;5076241;28;20059;-74
2021/04/30 01:33:42;;;;;;;29.95;21.45;;;;;;;9.27;60.69;99777.59;5077657;28;20088;-74
2021/04/30 01:36:09;;;;;;;25.30;20.13;;;;;;;9.28;60.60;99778.41;5077389;28;20369;-74
2021/04/30 01:38:35;;;;;;;25.08;19.90;;;;;;;9.34;60.69;99772.38;5077441;28;20048;-74
2021/04/30 01:41:03;;;;;;;25.50;20.63;;;;;;;9.37;60.98;99775.66;5076457;28;20059;-74
2021/04/30 01:43:30;;;;;;;23.17;19.75;;;;;;;9.40;60.47;99775.00;5077198;28;20075;-74
2021/04/30 01:46:03;;;;;;;24.50;19.75;;;;;;;9.41;60.52;99779.41;5077000;28;20053;-74
2021/04/30 01:48:31;;;;;;;30.73;22.17;;;;;;;9.39;60.74;99776.16;5076854;28;20126;-74
2021/04/30 01:51:00;;;;;;;28.45;23.00;;;;;;;9.32;60.85;99784.94;5076436;28;20044;-74
2021/04/30 01:53:28;;;;;;;30.48;23.27;;;;;;;9.31;61.39;99792.47;5077201;28;20053;-74
2021/04/30 01:55:56;;;;;;;33.90;23.65;;;;;;;9.35;61.13;99799.03;5077534;28;20052;-74
2021/04/30 01:58:27;;;;;;;34.95;25.40;;;;;;;9.27;61.19;99794.25;5077598;28;20409;-74
2021/04/30 02:00:55;;;;;;;33.72;24.08;;;;;;;9.26;61.88;99795.41;5076520;28;20493;-74
2021/04/30 02:03:22;;;;;;;32.05;23.80;;;;;;;9.33;61.34;99800.50;5077517;28;20056;-74
2021/04/30 02:05:49;;;;;;;32.15;25.00;;;;;;;9.37;61.00;99803.47;5077023;28;20049;-74
2021/04/30 02:08:17;;;;;;;40.35;27.45;;;;;;;9.31;61.32;99802.78;5076805;28;20055;-74
2021/04/30 02:10:45;;;;;;;35.03;25.60;;;;;;;9.29;61.47;99800.31;5076537;28;20059;-74
2021/04/30 02:13:13;;;;;;;34.05;25.55;;;;;;;9.24;61.35;99806.03;5077035;28;20062;-74
2021/04/30 02:15:43;;;;;;;32.53;24.08;;;;;;;9.26;61.39;99811.25;5076144;28;20056;-74
2021/04/30 02:18:10;;;;;;;33.72;26.00;;;;;;;9.25;61.88;99807.66;5076156;28;20051;-74
2021/04/30 02:20:37;;;;;;;40.22;27.50;;;;;;;9.18;61.71;99809.28;5076095;28;20464;-74
2021/04/30 02:23:05;;;;;;;38.45;26.48;;;;;;;9.05;62.33;99808.22;5076340;28;20044;-74
2021/04/30 02:25:33;;;;;;;39.97;28.33;;;;;;;9.07;62.49;99814.28;5075679;28;20052;-74
2021/04/30 02:28:01;;;;;;;41.10;27.63;;;;;;;9.08;62.92;99811.19;5075353;28;20056;-74
2021/04/30 02:30:30;;;;;;;39.47;27.15;;;;;;;9.13;62.93;99804.66;5074148;28;20059;-73
2021/04/30 02:33:02;;;;;;;47.25;27.48;;;;;;;9.16;62.32;99808.78;5074645;28;20052;-73
2021/04/30 02:35:31;;;;;;;43.88;29.63;;;;;;;9.09;62.50;99817.56;5073734;28;20461;-73
2021/04/30 02:37:58;;;;;;;44.83;28.33;;;;;;;9.08;63.16;99810.38;5074315;28;20060;-73
2021/04/30 02:40:27;;;;;;;39.92;28.25;;;;;;;9.11;63.16;99812.50;5074473;28;20099;-73
2021/04/30 02:42:56;;;;;;;42.03;29.70;;;;;;;9.08;62.57;99816.75;5074590;28;20486;-73
2021/04/30 02:45:23;;;;;;;42.88;30.38;;;;;;;9.06;63.13;99815.44;5074474;28;20454;-73
2021/04/30 02:47:52;;;;;;;47.90;29.45;;;;;;;9.09;62.68;99814.78;5074746;28;20052;-73
2021/04/30 02:50:21;;;;;;;45.05;29.90;;;;;;;9.14;62.48;99826.56;5074181;28;20430;-73
2021/04/30 02:52:51;;;;;;;48.00;29.85;;;;;;;9.11;62.97;99813.34;5074782;28;20049;-74
2021/04/30 02:55:20;;;;;;;46.88;32.25;;;;;;;9.02;63.80;99825.56;5074128;28;20056;-74
2021/04/30 02:57:52;;;;;;;49.15;29.67;;;;;;;9.06;63.38;99823.78;5074467;28;20052;-74
2021/04/30 03:00:20;;;;;;;48.13;28.63;;;;;;;9.06;63.74;99821.81;5074524;28;20067;-74
2021/04/30 03:02:47;;;;;;;51.38;32.25;;;;;;;9.00;63.96;99817.53;5073117;28;20048;-74
2021/04/30 03:05:15;;;;;;;45.72;30.85;;;;;;;9.04;63.82;99823.28;5074529;28;20052;-74
2021/04/30 03:07:43;;;;;;;50.22;30.95;;;;;;;9.06;63.95;99821.00;5073494;28;20049;-74
2021/04/30 03:10:11;;;;;;;45.13;29.48;;;;;;;9.10;63.75;99827.53;5074312;28;20048;-73
2021/04/30 03:12:38;;;;;;;46.30;31.75;;;;;;;9.07;64.20;99820.69;5073419;28;20516;-73
2021/04/30 03:15:06;;;;;;;45.85;30.08;;;;;;;9.06;63.72;99823.78;5074256;28;20354;-73
2021/04/30 03:17:33;;;;;;;43.45;27.85;;;;;;;9.04;64.31;99823.28;5074630;28;20068;-74
2021/04/30 03:20:00;;;;;;;42.72;28.52;;;;;;;8.98;64.25;99814.25;5074036;28;20052;-74
2021/04/30 03:22:27;;;;;;;40.00;28.02;;;;;;;8.96;63.95;99824.03;5073733;28;20053;-73
2021/04/30 03:24:55;;;;;;;43.55;28.33;;;;;;;8.89;64.77;99830.06;5073562;28;20053;-72
2021/04/30 03:27:22;;;;;;;41.38;27.75;;;;;;;8.89;65.03;99833.66;5073371;28;20048;-73
2021/04/30 03:29:49;;;;;;;46.97;28.38;;;;;;;8.93;64.89;99839.41;5073524;28;20056;-74
2021/04/30 03:32:16;;;;;;;44.30;28.00;;;;;;;8.99;64.28;99831.72;5073630;28;20079;-74
2021/04/30 03:34:43;;;;;;;42.83;25.38;;;;;;;9.00;64.61;99836.16;5073553;28;20048;-74
2021/04/30 03:37:09;;;;;;;39.40;26.73;;;;;;;8.98;64.33;99832.88;5073324;28;20059;-74
2021/04/30 03:39:39;;;;;;;47.05;28.63;;;;;;;9.00;64.56;99841.72;5073678;28;20052;-74
2021/04/30 03:42:07;;;;;;;45.90;28.88;;;;;;;8.95;64.50;99839.91;5073936;28;20065;-74
2021/04/30 03:44:34;;;;;;;48.95;28.67;;;;;;;8.93;64.64;99836.63;5073349;28;20421;-74
2021/04/30 03:47:01;;;;;;;48.08;29.15;;;;;;;9.00;64.94;99838.94;5073586;28;20057;-74
2021/04/30 03:49:28;;;;;;;42.30;29.10;;;;;;;9.01;64.66;99835.84;5072977;28;20359;-74
2021/04/30 03:51:55;;;;;;;50.30;29.88;;;;;;;9.01;64.79;99841.41;5073408;28;20060;-74
2021/04/30 03:54:22;;;;;;;47.03;28.55;;;;;;;9.05;64.70;99841.56;5072833;28;20045;-74
2021/04/30 03:56:49;;;;;;;47.92;29.00;;;;;;;9.05;64.52;99855.44;5073555;28;20053;-74
2021/04/30 03:59:19;;;;;;;53.90;30.58;;;;;;;9.09;64.28;99850.91;5073499;28;20052;-74
2021/04/30 04:01:45;;;;;;;;;;;;;;;9.09;64.23;99853.69;5074098;28;20044;-74
2021/04/30 04:04:12;;;;;;;49.95;29.10;;;;;;;9.08;64.00;99847.31;5072987;28;19920;-74
2021/04/30 04:06:39;;;;;;;43.08;28.98;;;;;;;9.14;64.59;99861.88;5073155;28;20477;-74
2021/04/30 04:09:07;;;;;;;45.15;28.30;;;;;;;9.19;64.22;99858.13;5073030;28;20386;-74
2021/04/30 04:11:33;;;;;;;48.13;28.67;;;;;;;9.29;64.40;99864.22;5072928;28;20060;-74
2021/04/30 04:14:00;;;;;;;43.17;26.98;;;;;;;9.31;63.68;99856.41;5073212;28;20052;-74
2021/04/30 04:16:28;;;;;;;46.30;29.38;;;;;;;9.20;64.24;99852.28;5072754;28;20067;-74
2021/04/30 04:18:55;;;;;;;51.50;29.02;;;;;;;9.16;64.44;99847.69;5073062;28;20131;-74
2021/04/30 04:21:22;;;;;;;53.63;31.05;;;;;;;9.18;64.76;99868.44;5072926;28;20059;-74
2021/04/30 04:23:49;;;;;;;49.38;29.90;;;;;;;9.14;64.20;99868.25;5072923;28;20055;-74
2021/04/30 04:26:17;;;;;;;57.53;31.63;;;;;;;9.14;64.67;99873.81;5073549;28;20406;-75
2021/04/30 04:28:44;;;;;;;51.40;31.50;;;;;;;9.05;64.40;99872.97;5073570;28;20064;-74
2021/04/30 04:31:11;;;;;;;61.13;31.15;;;;;;;9.08;65.13;99875.09;5073414;28;20355;-73
2021/04/30 04:33:38;;;;;;;48.83;30.20;;;;;;;9.11;64.94;99863.34;5073366;28;20044;-74
2021/04/30 04:36:06;;;;;;;55.88;31.98;;;;;;;9.12;64.69;99869.72;5072826;28;20048;-74
2021/04/30 04:38:33;;;;;;;54.70;31.92;;;;;;;9.17;65.08;99877.91;5072907;28;20052;-74
2021/04/30 04:41:00;;;;;;;57.80;32.35;;;;;;;9.20;64.37;99866.16;5072935;28;20052;-74
2021/04/30 04:43:26;;;;;;;54.25;31.67;;;;;;;9.18;64.73;99868.44;5072833;28;20063;-74
2021/04/30 04:45:54;;;;;;;57.60;32.40;;;;;;;9.24;64.49;99877.44;5073061;28;20060;-74
2021/04/30 04:48:20;;;;;;;61.05;35.67;;;;;;;9.25;64.46;99870.75;5073085;28;20055;-74
2021/04/30 04:50:50;;;;;;;63.30;33.33;;;;;;;9.27;64.75;99871.25;5073265;28;20067;-74
2021/04/30 04:53:17;;;;;;;;;;;;;;;9.30;64.49;99871.44;5073557;28;20048;-74
2021/04/30 04:55:44;;;;;;;59.05;34.20;;;;;;;9.32;64.24;99866.38;5072629;28;20018;-74
2021/04/30 04:58:11;;;;;;;62.08;32.15;;;;;;;9.33;64.57;99872.75;5073109;28;20057;-74
2021/04/30 05:00:38;;;;;;;62.85;34.53;;;;;;;9.39;64.63;99867.88;5073050;28;20056;-74
2021/04/30 05:03:05;;;;;;;53.97;31.77;;;;;;;9.45;64.84;99872.13;5072610;28;20048;-74
2021/04/30 05:05:32;;;;;;;62.42;33.53;;;;;;;9.49;64.72;99884.25;5072563;28;20495;-74
2021/04/30 05:07:59;;;;;;;62.17;33.58;;;;;;;9.54;65.22;99886.91;5072875;28;20461;-74
2021/04/30 05:10:26;;;;;;;67.47;35.08;;;;;;;9.56;64.77;99890.19;5072877;28;20063;-74
2021/04/30 05:12:53;;;;;;;57.13;33.10;;;;;;;9.59;65.04;99891.47;5070492;28;20389;-73
2021/04/30 05:15:21;;;;;;;62.70;34.60;;;;;;;9.63;64.36;99896.06;5072844;28;20064;-73
2021/04/30 05:17:48;;;;;;;61.55;35.15;;;;;;;9.67;64.38;99890.69;5071730;28;20052;-74
2021/04/30 05:20:15;;;;;;;65.90;34.47;;;;;;;9.71;64.37;99898.06;5070225;28;20473;-74
2021/04/30 05:22:43;;;;;;;55.05;30.02;;;;;;;9.70;64.41;99896.44;5070119;28;20404;-74
2021/04/30 05:25:13;;;;;;;57.95;32.88;;;;;;;9.71;63.97;99906.41;5074186;28;20059;-73
2021/04/30 05:27:41;;;;;;;63.78;34.30;;;;;;;9.70;64.21;99892.81;5076429;28;20063;-73
2021/04/30 05:30:09;;;;;;;58.03;33.42;;;;;;;9.72;63.84;99896.94;5076664;28;20056;-74
2021/04/30 05:32:36;;;;;;;57.78;34.97;;;;;;;9.72;64.27;99891.38;5076964;28;20056;-74
2021/04/30 05:35:04;;;;;;;60.65;34.30;;;;;;;9.70;64.22;99902.00;5076427;28;20060;-74
2021/04/30 05:37:31;;;;;;;62.80;34.45;;;;;;;9.71;63.68;99892.50;5075703;28;20040;-74
2021/04/30 05:39:58;;;;;;;62.55;34.55;;;;;;;9.66;63.86;99903.78;5076337;28;20052;-74
2021/04/30 05:42:26;;;;;;;69.47;34.78;;;;;;;9.63;64.11;99904.41;5076485;28;20053;-74
2021/04/30 05:44:53;;;;;;;62.65;33.95;;;;;;;9.66;64.02;99905.72;5076013;28;20063;-73
2021/04/30 05:47:20;;;;;;;61.70;33.53;;;;;;;9.66;64.07;99909.34;5076497;28;20048;-73
2021/04/30 05:49:47;;;;;;;62.10;32.90;;;;;;;9.68;63.87;99909.84;5076037;28;20060;-74
2021/04/30 05:52:14;;;;;;;62.00;32.17;;;;;;;9.69;64.04;99903.13;5076687;28;20465;-74
2021/04/30 05:54:42;;;;;;;61.05;33.10;;;;;;;9.69;64.30;99908.69;5076122;28;20067;-74
2021/04/30 05:57:09;;;;;;;64.10;35.30;;;;;;;9.73;63.62;99911.66;5075531;28;20381;-74
2021/04/30 05:59:38;;;;;;;63.13;32.90;;;;;;;9.73;64.04;99912.47;5076507;28;20056;-73
2021/04/30 06:02:05;;;;;;;63.65;33.22;;;;;;;9.70;63.80;99915.06;5076032;28;20386;-73
2021/04/30 06:04:32;;;;;;;62.88;31.77;;;;;;;9.66;64.36;99922.41;5075469;28;20126;-74
2021/04/30 06:06:59;;;;;;;57.08;30.20;;;;;;;9.69;64.24;99916.22;5075259;28;20481;-74
2021/04/30 06:09:26;;;;;;;57.38;30.73;;;;;;;9.59;64.36;99911.75;5074795;28;20079;-74
2021/04/30 06:11:54;;;;;;;58.13;30.35;;;;;;;9.66;64.49;99911.28;5075430;28;20052;-74
2021/04/30 06:14:29;;;;;;;58.55;32.10;;;;;;;9.69;64.13;99916.22;5075162;28;20492;-74
2021/04/30 06:16:57;;;;;;;58.78;31.85;;;;;;;9.64;63.82;99917.19;5074679;28;20052;-74
2021/04/30 06:19:24;;;;;;;57.78;29.48;;;;;;;9.62;64.63;99915.88;5074039;28;20048;-74
2021/04/30 06:21:52;;;;;;;63.28;32.63;;;;;;;9.56;64.68;99926.31;5074262;28;20048;-74
2021/04/30 06:24:19;;;;;;;60.38;32.05;;;;;;;9.56;64.20;99920.75;5073628;28;20053;-74
2021/04/30 06:26:47;;;;;;;60.10;30.92;;;;;;;9.60;64.16;99930.09;5074810;28;20056;-74
2021/04/30 06:29:14;;;;;;;58.58;30.58;;;;;;;9.60;64.36;99921.75;5074212;28;20405;-74
2021/04/30 06:31:42;;;;;;;56.13;32.13;;;;;;;9.64;64.50;99930.25;5073444;28;20045;-74
2021/04/30 06:34:10;;;;;;;57.33;31.75;;;;;;;9.68;64.18;99929.31;5072940;28;20044;-74
2021/04/30 06:36:38;;;;;;;61.40;31.50;;;;;;;9.71;64.27;99933.41;5084993;28;20045;-74
2021/04/30 06:39:08;;;;;;;62.95;32.15;;;;;;;9.70;63.88;99935.38;5074422;28;20465;-74
2021/04/30 06:41:35;;;;;;;51.13;27.20;;;;;;;9.75;64.09;99932.44;5073227;28;20059;-73
2021/04/30 06:44:02;;;;;;;52.13;27.17;;;;;;;9.63;64.13;99939.75;5073997;28;20051;-74
2021/04/30 06:46:29;;;;;;;50.13;28.08;;;;;;;9.55;64.32;99933.00;5073980;28;20057;-73
2021/04/30 06:48:56;;;;;;;58.03;29.15;;;;;;;9.58;64.00;99937.94;5074409;28;20393;-74
2021/04/30 06:51:24;;;;;;;63.20;29.17;;;;;;;9.55;64.14;99944.13;5073799;28;20063;-74
2021/04/30 06:53:51;;;;;;;58.10;30.63;;;;;;;9.44;65.16;99945.56;5073742;28;20401;-74
2021/04/30 06:56:18;;;;;;;51.75;27.60;;;;;;;9.48;64.85;99955.72;5073321;28;20052;-74
2021/04/30 06:58:45;;;;;;;51.83;27.13;;;;;;;9.37;64.86;99948.78;5074016;28;20056;-74
2021/04/30 07:01:12;;;;;;;55.05;27.23;;;;;;;9.38;65.04;99946.84;5073856;28;20049;-74
2021/04/30 07:03:40;;;;;;;55.00;27.30;;;;;;;9.43;65.11;99957.81;5067475;28;20053;-76
2021/04/30 07:06:07;;;;;;;54.13;26.80;;;;;;;9.35;65.66;99949.09;5073392;28;20076;-74
2021/04/30 07:08:35;;;;;;;53.95;26.92;;;;;;;9.47;65.25;99944.91;5068789;28;20056;-75
2021/04/30 07:11:01;;;;;;;58.03;28.13;;;;;;;9.43;64.70;99952.25;5071044;28;20048;-75
2021/04/30 07:13:28;;;;;;;50.35;26.10;;;;;;;9.44;64.38;99948.34;5070533;28;20053;-75
2021/04/30 07:15:55;;;;;;;50.42;27.38;;;;;;;9.51;64.45;99949.53;5071081;28;20052;-75
2021/04/30 07:18:22;;;;;;;58.55;30.38;;;;;;;9.44;64.86;99938.03;5070867;28;20049;-75
2021/04/30 07:20:49;;;;;;;54.47;28.05;;;;;;;9.50;65.18;99944.28;5071848;28;20052;-75
2021/04/30 07:23:17;;;;;;;51.97;26.08;;;;;;;9.61;64.70;99936.47;5069617;28;20496;-75
2021/04/30 07:25:44;;;;;;;54.30;27.85;;;;;;;9.63;64.05;99943.34;5071603;28;20044;-76
2021/04/30 07:28:11;;;;;;;53.58;27.25;;;;;;;9.71;63.87;99942.56;5070077;28;20052;-75
2021/04/30 07:30:38;;;;;;;50.83;27.77;;;;;;;9.78;63.50;99944.88;5071436;28;20052;-75
2021/04/30 07:33:05;;;;;;;54.88;28.08;;;;;;;9.69;64.27;99950.41;5069975;28;20048;-76
2021/04/30 07:35:32;;;;;;;55.83;27.00;;;;;;;9.72;63.85;99944.22;5070776;28;20060;-75
2021/04/30 07:37:59;;;;;;;53.75;26.83;;;;;;;9.85;63.40;99947.19;5070372;28;20052;-73
2021/04/30 07:40:27;;;;;;;51.75;27.08;;;;;;;9.93;63.24;99950.00;5070467;28;20064;-75
2021/04/30 07:42:56;;;;;;;52.80;27.42;;;;;;;10.00;62.94;99941.19;5070665;28;20052;-75
2021/04/30 07:45:23;;;;;;;48.42;27.45;;;;;;;10.01;62.86;99940.03;5070416;28;20053;-75
2021/04/30 07:47:50;;;;;;;48.80;26.10;;;;;;;10.10;63.01;99943.66;5069623;28;20052;-75
2021/04/30 07:50:17;;;;;;;45.75;26.70;;;;;;;10.21;62.40;99954.50;5069771;28;20059;-74
2021/04/30 07:52:44;;;;;;;49.78;25.92;;;;;;;10.28;61.62;99954.81;5070228;28;20048;-75
2021/04/30 07:55:11;;;;;;;48.65;26.48;;;;;;;10.08;62.21;99957.09;5069955;28;20056;-74
2021/04/30 07:57:39;;;;;;;46.28;27.70;;;;;;;10.10;62.24;99970.66;5069755;28;20061;-74
2021/04/30 08:00:10;;;;;;;51.63;28.65;;;;;;;10.13;62.37;99959.69;5070418;28;20071;-74
2021/04/30 08:02:37;;;;;;;46.92;26.70;;;;;;;10.08;61.84;99968.22;5069329;28;20063;-73
2021/04/30 08:05:05;;;;;;;54.92;27.67;;;;;;;10.15;61.96;99973.28;5071053;28;20056;-73
2021/04/30 08:07:33;;;;;;;50.75;27.55;;;;;;;10.18;61.94;99967.06;5062889;28;20060;-73
2021/04/30 08:10:00;;;;;;;47.17;26.80;;;;;;;10.15;62.00;99968.53;5070921;28;20052;-76
2021/04/30 08:12:27;;;;;;;44.38;26.00;;;;;;;10.30;61.72;99969.25;5069753;28;20067;-75
2021/04/30 08:14:54;;;;;;;47.42;26.88;;;;;;;10.38;61.11;99973.22;5066501;28;20052;-75
2021/04/30 08:17:21;;;;;;;47.08;27.95;;;;;;;10.47;60.82;99976.81;5070392;28;20049;-75
2021/04/30 08:19:48;;;;;;;48.40;26.67;;;;;;;10.61;61.07;99973.88;5070642;28;20059;-75
2021/04/30 08:22:15;;;;;;;45.58;26.70;;;;;;;10.72;60.84;99973.22;5070800;28;20048;-74
2021/04/30 08:24:42;;;;;;;45.90;27.02;;;;;;;10.88;59.94;99972.75;5071146;28;20064;-74
2021/04/30 08:27:09;;;;;;;46.97;26.92;;;;;;;10.93;59.51;99964.19;5070455;28;20054;-74
2021/04/30 08:29:36;;;;;;;44.92;25.73;;;;;;;11.05;58.91;99972.72;5070809;28;20397;-75
2021/04/30 08:32:03;;;;;;;44.97;26.65;;;;;;;10.97;58.90;99974.34;5066278;28;20588;-75
2021/04/30 08:34:31;;;;;;;47.88;26.35;;;;;;;11.03;58.97;99974.22;5072172;28;20048;-75
2021/04/30 08:36:58;;;;;;;48.88;25.70;;;;;;;11.21;58.54;99970.22;5072444;28;20057;-75
2021/04/30 08:39:25;;;;;;;46.63;24.85;;;;;;;11.35;58.15;99976.41;5071554;28;20079;-75
2021/04/30 08:41:52;;;;;;;41.63;24.98;;;;;;;11.36;58.02;99980.06;5072183;28;20409;-75
2021/04/30 08:44:19;;;;;;;44.15;24.02;;;;;;;11.30;58.07;99993.34;5071414;28;20063;-75
2021/04/30 08:46:46;;;;;;;40.67;24.20;;;;;;;11.17;58.21;99985.97;5072191;28;20053;-74
2021/04/30 08:49:13;;;;;;;41.70;25.10;;;;;;;11.25;58.06;99992.69;5071537;28;20115;-75
2021/04/30 08:51:43;;;;;;;40.85;24.73;;;;;;;11.32;57.96;99979.88;5071534;28;20048;-75
2021/04/30 08:54:10;;;;;;;41.80;23.98;;;;;;;11.46;57.49;99992.81;5071413;28;20417;-75
2021/04/30 08:56:44;;;;;;;41.08;23.95;;;;;;;11.51;57.17;99984.28;5062946;28;20048;-75
2021/04/30 08:59:12;;;;;;;40.08;25.30;;;;;;;11.57;57.24;99985.72;5071332;28;20048;-74
2021/04/30 09:01:39;;;;;;;43.17;25.23;;;;;;;11.66;56.74;99985.69;5075208;28;21883;-74
2021/04/30 09:04:07;;;;;;;36.55;23.23;;;;;;;11.73;56.28;99981.22;5074472;28;20052;-75
2021/04/30 09:06:35;;;;;;;38.08;24.70;;;;;;;11.81;56.38;99987.94;5075308;28;20053;-75
2021/04/30 09:09:08;;;;;;;41.42;23.55;;;;;;;11.91;56.09;99989.56;5074711;28;20051;-74
2021/04/30 09:11:37;;;;;;;39.50;22.98;;;;;;;11.88;56.30;99987.41;5075364;28;20052;-74
2021/04/30 09:14:22;;;;;;;40.42;24.13;;;;;;;11.90;55.86;99988.72;5073508;28;20059;-73
2021/04/30 09:17:05;;;;;;;39.10;24.05;;;;;;;11.95;55.75;99988.56;5074990;28;20052;-73
2021/04/30 09:19:34;;;;;;;40.58;24.33;;;;;;;11.95;56.30;99998.91;5074507;28;20053;-74
2021/04/30 09:22:03;;;;;;;38.10;24.20;;;;;;;12.00;56.26;100000.69;5075040;28;20048;-74
2021/04/30 09:24:31;;;;;;;38.53;25.13;;;;;;;12.06;56.00;100005.75;5074603;28;20056;-72
2021/04/30 09:26:58;;;;;;;39.13;24.33;;;;;;;12.07;55.82;100001.78;5075559;28;20875;-72
2021/04/30 09:29:28;;;;;;;42.75;25.80;;;;;;;12.12;55.82;100009.97;5075217;28;20052;-74
2021/04/30 09:31:54;;;;;;;41.75;26.08;;;;;;;12.11;55.83;100008.31;5075099;28;20049;-73
2021/04/30 09:34:27;;;;;;;39.80;24.73;;;;;;;12.17;55.82;100018.16;5074530;28;20057;-73
2021/04/30 09:37:08;;;;;;;36.65;24.90;;;;;;;12.18;55.68;100011.44;5075059;28;20439;-73
2021/04/30 09:39:51;;;;;;;39.17;24.55;;;;;;;12.19;55.53;100015.84;5075092;28;20498;-73
2021/04/30 09:42:20;;;;;;;51.20;32.65;;;;;;;12.11;55.61;100011.13;5074610;28;20501;-75
2021/04/30 09:44:51;;;;;;;39.00;24.48;;;;;;;12.24;55.17;100022.41;5074767;28;20052;-75
2021/04/30 09:47:24;;;;;;;40.45;25.00;;;;;;;12.18;55.00;100019.81;5080564;28;20377;-75
2021/04/30 09:49:53;;;;;;;37.30;23.83;;;;;;;12.15;55.26;100014.88;5074661;28;20474;-74
2021/04/30 09:52:22;;;;;;;42.85;24.73;;;;;;;11.95;56.13;100021.25;5075652;28;20048;-74
2021/04/30 09:54:51;;;;;;;37.67;23.88;;;;;;;12.08;55.39;100024.94;5074785;28;20064;-74
2021/04/30 09:57:21;;;;;;;36.70;23.80;;;;;;;12.07;55.17;100024.13;5066540;28;20056;-73
2021/04/30 09:59:55;;;;;;;37.60;25.35;;;;;;;12.07;55.81;100012.13;5074307;28;20044;-73
2021/04/30 10:02:23;;;;;;;39.78;26.08;;;;;;;12.12;55.96;100015.56;5075344;28;20048;-73
2021/04/30 10:04:51;;;;;;;39.47;23.48;;;;;;;12.23;55.54;100009.59;5074958;28;20051;-73
2021/04/30 10:07:31;;;;;;;37.03;23.92;;;;;;;12.29;55.40;100005.47;5074144;28;20044;-74
2021/04/30 10:10:08;;;;;;;36.67;22.02;;;;;;;12.32;54.46;100004.78;5073575;28;20049;-74
2021/04/30 10:12:36;;;;;;;34.67;22.58;;;;;;;12.35;54.63;100007.72;5057802;28;20410;-74
2021/04/30 10:15:04;;;;;;;38.78;25.05;;;;;;;12.34;54.81;100010.84;5075101;28;20053;-74
2021/04/30 10:17:31;;;;;;;37.67;24.35;;;;;;;12.33;54.17;100010.03;5073876;28;20075;-74
2021/04/30 10:19:58;;;;;;;37.38;24.08;;;;;;;12.42;54.41;100014.75;5074209;28;20044;-74
2021/04/30 10:22:27;;;;;;;36.63;23.00;;;;;;;12.50;53.82;100003.50;5073418;28;20389;-73
2021/04/30 10:24:56;;;;;;;37.88;24.73;;;;;;;12.53;53.83;99997.22;5073401;28;20050;-73
2021/04/30 10:27:33;;;;;;;39.55;25.25;;;;;;;12.58;54.71;99997.06;5072477;28;20048;-73
2021/04/30 10:30:24;;;;;;;37.20;23.83;;;;;;;12.63;53.85;100000.81;5074024;28;20059;-73
2021/04/30 10:32:54;;;;;;;33.10;22.85;;;;;;;12.67;53.43;99996.97;5070042;28;20405;-73
2021/04/30 10:35:27;;;;;;;33.80;23.90;;;;;;;12.60;53.76;100007.91;5073304;28;20063;-73
2021/04/30 10:37:59;;;;;;;33.42;23.05;;;;;;;12.56;53.68;100016.13;5072959;28;20052;-73
2021/04/30 10:40:26;;;;;;;33.33;23.25;;;;;;;12.55;53.60;100016.47;5074817;28;20068;-73
2021/04/30 10:42:58;;;;;;;35.13;23.52;;;;;;;12.57;53.41;100020.53;5071837;28;20461;-74
2021/04/30 10:45:27;;;;;;;36.75;25.02;;;;;;;12.54;53.56;100020.44;5073209;28;20496;-73
2021/04/30 10:48:05;;;;;;;34.40;23.80;;;;;;;12.61;53.55;100019.88;5072278;28;20488;-73
2021/04/30 10:50:32;;;;;;;33.67;23.60;;;;;;;12.66;53.43;100016.88;5065773;28;20049;-74
2021/04/30 10:53:24;;;;;;;36.08;24.40;;;;;;;12.64;53.44;100019.19;5073320;28;20044;-73
2021/04/30 10:55:51;;;;;;;34.67;24.63;;;;;;;12.63;53.02;100017.56;5067605;28;20389;-74
2021/04/30 10:58:35;;;;;;;35.20;24.52;;;;;;;12.63;53.36;100012.78;5072670;28;20055;-74
2021/04/30 11:01:22;;;;;;;32.72;23.88;;;;;;;12.76;53.13;100002.50;5073520;28;20048;-74
2021/04/30 11:04:12;;;;;;;30.17;23.30;;;;;;;13.04;52.45;100005.56;5066767;28;20041;-74
2021/04/30 11:06:42;;;;;;;30.60;22.73;;;;;;;13.23;51.12;100002.28;5073329;28;20044;-74
2021/04/30 11:09:12;;;;;;;30.85;24.15;;;;;;;13.39;50.94;100011.66;5072961;28;20421;-75
2021/04/30 11:11:42;;;;;;;32.53;22.27;;;;;;;13.25;50.81;100007.50;5072633;28;20045;-74
2021/04/30 11:14:26;;;;;;;31.73;22.23;;;;;;;13.28;51.00;99999.25;5072359;28;20165;-74
2021/04/30 11:16:55;;;;;;;31.67;22.33;;;;;;;13.27;51.65;100000.41;5066327;28;20048;-73
2021/04/30 11:19:23;;;;;;;33.08;23.50;;;;;;;13.47;50.67;99995.97;5073347;28;20053;-73
2021/04/30 11:21:52;;;;;;;28.65;21.67;;;;;;;13.70;49.63;99989.94;5073337;28;20060;-73
2021/04/30 11:24:33;;;;;;;29.48;21.23;;;;;;;14.00;48.39;99988.56;5072296;28;20060;-73
2021/04/30 11:27:29;;;;;;;27.95;21.33;;;;;;;14.12;48.25;99987.75;5073358;28;20056;-74